This is the latest recevied weather packets stored in our database for station/object NI2O. If no packets are shown the sender has not sent any weather packets the latest 10 day(s).
| Time | Temp. | Humidity | Pressure | Rain* | Wind** | Luminosity | Snow |
|---|---|---|---|---|---|---|---|
| 1777767798 | 11.67° C | 43% | 1010.7 hPa | 0 mm | - | 0 W/m² | - |
| 1777765343 | 12.78° C | 40% | 1010.4 hPa | 0 mm | - | 12 W/m² | - |
| 1777763502 | 13.33° C | 40% | 1010.5 hPa | 0 mm | - | 30 W/m² | - |
| 1777762889 | 12.78° C | 39% | 1010.5 hPa | 0 mm | - | 39 W/m² | - |
| 1777756752 | 13.89° C | 39% | 1010.1 hPa | 0 mm | - | 140 W/m² | - |
| 1777754911 | 14.44° C | 37% | 1009.8 hPa | 0 mm | - | 347 W/m² | - |
| 1777752496 | 13.89° C | 42% | 1010.1 hPa | 0 mm | - | 480 W/m² | - |
| 1777751229 | 13.89° C | 41% | 1010.4 hPa | 0 mm | - | 191 W/m² | - |
| 1777743555 | 13.33° C | 44% | 1011.7 hPa | 0 mm | - | 295 W/m² | - |
| 1777741101 | 12.22° C | 51% | 1011.8 hPa | 0 mm | - | 284 W/m² | - |
| 1777736192 | 11.67° C | 53% | 1012.7 hPa | 0 mm | - | 535 W/m² | - |
| 1777734965 | 11.11° C | 52% | 1012.5 hPa | 0 mm | - | 485 W/m² | - |
| 1777734351 | 10.56° C | 55% | 1012.4 hPa | 0 mm | - | 445 W/m² | - |
| 1777730056 | 9.44° C | 67% | 1012.4 hPa | 0 mm | - | 221 W/m² | - |
| 1777729442 | 9.44° C | 68% | 1012.4 hPa | 0 mm | - | 206 W/m² | - |
| 1777727602 | 9.44° C | 67% | 1012.5 hPa | 0 mm | - | 171 W/m² | - |
| 1777726374 | 8.89° C | 80% | 1012.4 hPa | 0 mm | - | 119 W/m² | - |
| 1777725147 | 8.89° C | 82% | 1012.5 hPa | 0 mm | - | 60 W/m² | - |
| 1777717781 | 9.44° C | 81% | 1011.3 hPa | 0 mm | - | 12 W/m² | - |
| 1777714713 | 10° C | 84% | 1011.4 hPa | 0 mm | - | 0 W/m² | - |
| 1777714120 | 10° C | 83% | 1011.2 hPa | 0 mm | - | 0 W/m² | - |
| 1777711052 | 10° C | 83% | 1010.8 hPa | 0 mm | - | 0 W/m² | - |
| 1777703357 | 10.56° C | 77% | 1011.4 hPa | 0 mm | - | 0 W/m² | - |
| 1777702743 | 10.56° C | 77% | 1011.4 hPa | 0 mm | - | 0 W/m² | - |
| 1777689855 | 12.22° C | 67% | 1011.3 hPa | 0 mm | - | 0 W/m² | - |
* Rain latest hour (hover to see other rain measurements)
** Current wind speed in m/s (hover to see current wind gust speed)